createdAt,value
2016-12-25T00:00:48.240Z,1011.71
2016-12-25T00:01:47.949Z,1011.7
2016-12-25T00:02:48.148Z,1011.72
2016-12-25T00:03:48.252Z,1011.65
2016-12-25T00:04:48.400Z,1011.56
2016-12-25T00:05:48.173Z,1011.61
2016-12-25T00:06:48.402Z,1011.62
2016-12-25T00:07:48.158Z,1011.61
2016-12-25T00:08:48.720Z,1011.6
2016-12-25T00:09:48.340Z,1011.57
2016-12-25T00:10:48.174Z,1011.67
2016-12-25T00:11:48.385Z,1011.63
2016-12-25T00:12:48.169Z,1011.6
2016-12-25T00:13:48.650Z,1011.62
2016-12-25T00:14:48.379Z,1011.57
2016-12-25T00:15:48.773Z,1011.53
2016-12-25T00:16:48.208Z,1011.57
2016-12-25T00:17:48.433Z,1011.57
2016-12-25T00:18:48.319Z,1011.64
2016-12-25T00:19:48.232Z,1011.63
2016-12-25T00:20:48.129Z,1011.7
2016-12-25T00:21:48.469Z,1011.52
2016-12-25T00:22:48.480Z,1011.53
2016-12-25T00:23:48.259Z,1011.45
2016-12-25T00:24:48.425Z,1011.48
2016-12-25T00:25:48.265Z,1011.57
2016-12-25T00:26:48.405Z,1011.55
2016-12-25T00:27:48.314Z,1011.52
2016-12-25T00:28:48.405Z,1011.48
2016-12-25T00:29:48.605Z,1011.53
2016-12-25T00:30:48.711Z,1011.54
2016-12-25T00:31:48.350Z,1011.61
2016-12-25T00:32:48.658Z,1011.48
2016-12-25T00:33:48.379Z,1011.45
2016-12-25T00:34:48.872Z,1011.52
2016-12-25T00:35:48.547Z,1011.43
2016-12-25T00:36:48.534Z,1011.49
2016-12-25T00:37:48.489Z,1011.52
2016-12-25T00:38:48.511Z,1011.46
2016-12-25T00:39:48.595Z,1011.51
2016-12-25T00:40:48.456Z,1011.43
2016-12-25T00:41:48.555Z,1011.46
2016-12-25T00:42:48.704Z,1011.46
2016-12-25T00:43:48.431Z,1011.57
2016-12-25T00:44:49.319Z,1011.59
2016-12-25T00:45:48.702Z,1011.59
2016-12-25T00:46:48.910Z,1011.65
2016-12-25T00:47:48.641Z,1011.54
2016-12-25T00:48:49.154Z,1011.44
2016-12-25T00:49:48.940Z,1011.44
2016-12-25T00:50:48.772Z,1011.53
2016-12-25T00:51:48.696Z,1011.49
2016-12-25T00:52:48.797Z,1011.49
2016-12-25T00:53:48.871Z,1011.71
2016-12-25T00:54:48.690Z,1011.73
2016-12-25T00:55:49.075Z,1011.51
2016-12-25T00:56:48.712Z,1011.62
2016-12-25T00:57:49.053Z,1011.71
2016-12-25T00:58:48.732Z,1011.69
2016-12-25T00:59:48.753Z,1011.69
2016-12-25T01:00:48.965Z,1011.72
2016-12-25T01:01:48.833Z,1011.64
2016-12-25T01:02:49.174Z,1011.57
2016-12-25T01:03:48.901Z,1011.75
2016-12-25T01:04:49.138Z,1011.71
2016-12-25T01:05:48.975Z,1011.82
2016-12-25T01:06:49.102Z,1011.88
2016-12-25T01:07:48.990Z,1011.88
2016-12-25T01:08:48.950Z,1011.83
2016-12-25T01:09:48.969Z,1011.91
2016-12-25T01:10:48.972Z,1011.9
2016-12-25T01:11:49.113Z,1012.08
2016-12-25T01:12:49.008Z,1011.9
2016-12-25T01:13:49.149Z,1011.92
2016-12-25T01:14:49.212Z,1011.96
2016-12-25T01:15:49.056Z,1012.01
2016-12-25T01:16:49.253Z,1012.02
2016-12-25T01:17:49.053Z,1012
2016-12-25T01:18:49.130Z,1012.06
2016-12-25T01:19:49.436Z,1011.95
2016-12-25T01:20:49.358Z,1012.05
2016-12-25T01:21:49.375Z,1012.06
2016-12-25T01:22:49.160Z,1012.01
2016-12-25T01:23:49.109Z,1011.96
2016-12-25T01:24:49.451Z,1011.97
2016-12-25T01:25:49.309Z,1012.01
2016-12-25T01:26:49.165Z,1011.89
2016-12-25T01:27:49.314Z,1011.9
2016-12-25T01:28:49.357Z,1011.86
2016-12-25T01:29:49.766Z,1011.93
2016-12-25T01:30:49.421Z,1011.84
2016-12-25T01:31:49.354Z,1011.82
2016-12-25T01:32:49.443Z,1011.82
2016-12-25T01:33:49.298Z,1011.73
2016-12-25T01:34:49.466Z,1011.74
2016-12-25T01:35:49.519Z,1011.73
2016-12-25T01:36:49.373Z,1011.75
2016-12-25T01:37:49.786Z,1011.8
2016-12-25T01:38:49.866Z,1011.71
2016-12-25T01:39:49.490Z,1011.66
2016-12-25T01:40:49.661Z,1011.74
2016-12-25T01:41:49.510Z,1011.71
2016-12-25T01:42:49.452Z,1011.63
2016-12-25T01:43:49.761Z,1011.71
2016-12-25T01:44:49.714Z,1011.78
2016-12-25T01:45:49.720Z,1011.73
2016-12-25T01:46:49.619Z,1011.76
2016-12-25T01:47:49.567Z,1011.7
2016-12-25T01:48:50.130Z,1011.76
2016-12-25T01:49:49.552Z,1011.72
2016-12-25T01:50:49.690Z,1011.6
2016-12-25T01:51:49.890Z,1011.64
2016-12-25T01:52:49.596Z,1011.56
2016-12-25T01:53:49.711Z,1011.6
2016-12-25T01:54:49.826Z,1011.8
2016-12-25T01:55:49.690Z,1011.63
2016-12-25T01:56:49.660Z,1011.63
2016-12-25T01:57:49.654Z,1011.74
2016-12-25T01:58:49.681Z,1011.69
2016-12-25T01:59:49.791Z,1011.66
2016-12-25T02:00:49.955Z,1011.55
2016-12-25T02:01:49.772Z,1011.56
2016-12-25T02:02:49.818Z,1011.57
2016-12-25T02:03:49.940Z,1011.53
2016-12-25T02:04:49.905Z,1011.57
2016-12-25T02:05:49.926Z,1011.59
2016-12-25T02:06:50.388Z,1011.56
2016-12-25T02:07:49.954Z,1011.56
2016-12-25T02:08:49.945Z,1011.52
2016-12-25T02:09:50.005Z,1011.56
2016-12-25T02:10:50.416Z,1011.62
2016-12-25T02:11:50.103Z,1011.55
2016-12-25T02:12:50.008Z,1011.47
2016-12-25T02:13:49.906Z,1011.55
2016-12-25T02:14:50.118Z,1011.51
2016-12-25T02:15:50.031Z,1011.68
2016-12-25T02:16:50.135Z,1011.63
2016-12-25T02:17:50.064Z,1011.64
2016-12-25T02:18:50.235Z,1011.6
2016-12-25T02:19:49.989Z,1011.61
2016-12-25T02:20:50.249Z,1011.57
2016-12-25T02:21:50.253Z,1011.59
2016-12-25T02:22:50.569Z,1011.45
2016-12-25T02:23:50.309Z,1011.45
2016-12-25T02:24:50.587Z,1011.36
2016-12-25T02:25:50.479Z,1011.3
2016-12-25T02:26:50.141Z,1011.31
2016-12-25T02:27:50.175Z,1011.32
2016-12-25T02:28:50.313Z,1011.24
2016-12-25T02:29:50.301Z,1011.35
2016-12-25T02:30:50.298Z,1011.31
2016-12-25T02:31:50.408Z,1011.32
2016-12-25T02:32:50.716Z,1011.33
2016-12-25T02:33:50.280Z,1011.36
2016-12-25T02:34:50.645Z,1011.37
2016-12-25T02:35:50.327Z,1011.37
2016-12-25T02:36:50.267Z,1011.37
2016-12-25T02:37:50.280Z,1011.32
2016-12-25T02:38:50.719Z,1011.36
2016-12-25T02:39:50.623Z,1011.38
2016-12-25T02:40:50.489Z,1011.29
2016-12-25T02:41:50.684Z,1011.3
2016-12-25T02:42:50.752Z,1011.33
2016-12-25T02:43:50.619Z,1011.34
2016-12-25T02:44:50.630Z,1011.34
2016-12-25T02:45:50.826Z,1011.36
2016-12-25T02:46:50.712Z,1011.34
2016-12-25T02:47:50.573Z,1011.31
2016-12-25T02:48:50.657Z,1011.36
2016-12-25T02:49:50.600Z,1011.31
2016-12-25T02:50:50.912Z,1011.4
2016-12-25T02:51:50.991Z,1011.26
2016-12-25T02:52:50.729Z,1011.31
2016-12-25T02:53:51.000Z,1011.3
2016-12-25T02:54:50.835Z,1011.26
2016-12-25T02:55:50.651Z,1011.32
2016-12-25T02:56:50.795Z,1011.29
2016-12-25T02:57:50.660Z,1011.21
2016-12-25T02:58:50.686Z,1011.24
2016-12-25T02:59:50.581Z,1011.26
2016-12-25T03:00:50.777Z,1011.19
2016-12-25T03:01:50.745Z,1011.09
2016-12-25T03:02:50.797Z,1011.06
2016-12-25T03:03:51.010Z,1011.11
2016-12-25T03:04:50.903Z,1011.11
2016-12-25T03:05:50.851Z,1011.15
2016-12-25T03:06:50.961Z,1011.13
2016-12-25T03:07:50.897Z,1011.19
2016-12-25T03:08:51.034Z,1011.13
2016-12-25T03:09:50.921Z,1011.17
2016-12-25T03:10:50.902Z,1011.23
2016-12-25T03:11:50.983Z,1011.19
2016-12-25T03:12:50.869Z,1011.21
2016-12-25T03:13:50.822Z,1011.17
2016-12-25T03:14:50.881Z,1011.19
2016-12-25T03:15:50.988Z,1010.99
2016-12-25T03:16:50.972Z,1011.03
2016-12-25T03:17:50.895Z,1011.07
2016-12-25T03:18:51.288Z,1011.08
2016-12-25T03:19:50.945Z,1011.07
2016-12-25T03:20:51.261Z,1011.01
2016-12-25T03:21:50.943Z,1011.08
2016-12-25T03:22:51.324Z,1011.09
2016-12-25T03:23:51.197Z,1011.08
2016-12-25T03:24:51.232Z,1011.08
2016-12-25T03:25:51.496Z,1011.13
2016-12-25T03:26:51.377Z,1011.01
2016-12-25T03:27:51.185Z,1011.09
2016-12-25T03:28:51.273Z,1010.99
2016-12-25T03:29:51.132Z,1010.99
2016-12-25T03:30:51.216Z,1010.99
2016-12-25T03:31:51.462Z,1010.97
2016-12-25T03:32:51.298Z,1010.98
2016-12-25T03:33:51.642Z,1010.97
2016-12-25T03:34:51.270Z,1010.92
2016-12-25T03:35:51.599Z,1010.94
2016-12-25T03:36:51.229Z,1010.89
2016-12-25T03:37:51.364Z,1010.89
2016-12-25T03:38:51.752Z,1010.9
2016-12-25T03:39:51.369Z,1010.82
2016-12-25T03:40:51.604Z,1010.78
2016-12-25T03:41:51.549Z,1010.78
2016-12-25T03:42:51.385Z,1010.77
2016-12-25T03:43:51.370Z,1010.79
2016-12-25T03:44:51.447Z,1010.78
2016-12-25T03:45:51.576Z,1010.73
2016-12-25T03:46:51.911Z,1010.75
2016-12-25T03:47:51.476Z,1010.81
2016-12-25T03:48:51.853Z,1010.81
2016-12-25T03:49:52.052Z,1010.79
2016-12-25T03:50:51.811Z,1010.72
2016-12-25T03:51:51.700Z,1010.79
2016-12-25T03:52:51.889Z,1010.82
2016-12-25T03:53:51.629Z,1010.88
2016-12-25T03:54:51.718Z,1010.78
2016-12-25T03:55:51.640Z,1010.71
2016-12-25T03:56:51.612Z,1010.75
2016-12-25T03:57:51.585Z,1010.79
2016-12-25T03:58:51.861Z,1010.72
2016-12-25T03:59:51.679Z,1010.72
2016-12-25T04:00:52.004Z,1010.71
2016-12-25T04:01:52.072Z,1010.7
2016-12-25T04:02:51.841Z,1010.69
2016-12-25T04:03:51.699Z,1010.7
2016-12-25T04:04:51.701Z,1010.7
2016-12-25T04:05:51.906Z,1010.79
2016-12-25T04:06:52.238Z,1010.74
2016-12-25T04:07:51.871Z,1010.69
2016-12-25T04:08:52.165Z,1010.72
2016-12-25T04:09:52.050Z,1010.78
2016-12-25T04:10:51.974Z,1010.76
2016-12-25T04:11:52.273Z,1010.71
2016-12-25T04:12:51.870Z,1010.76
2016-12-25T04:13:51.860Z,1010.81
2016-12-25T04:14:52.206Z,1010.72
2016-12-25T04:15:51.929Z,1010.69
2016-12-25T04:16:51.918Z,1010.68
2016-12-25T04:17:51.915Z,1010.61
2016-12-25T04:18:51.949Z,1010.64
2016-12-25T04:19:51.938Z,1010.73
2016-12-25T04:20:52.339Z,1010.73
2016-12-25T04:21:52.072Z,1010.62
2016-12-25T04:22:52.128Z,1010.66
2016-12-25T04:23:52.117Z,1010.59
2016-12-25T04:24:52.029Z,1010.6
2016-12-25T04:25:52.100Z,1010.54
2016-12-25T04:26:52.193Z,1010.6
2016-12-25T04:27:52.228Z,1010.58
2016-12-25T04:28:52.132Z,1010.53
2016-12-25T04:29:52.286Z,1010.52
2016-12-25T04:30:52.230Z,1010.58
2016-12-25T04:31:52.535Z,1010.58
2016-12-25T04:32:52.184Z,1010.57
2016-12-25T04:33:52.194Z,1010.58
2016-12-25T04:34:52.120Z,1010.67
2016-12-25T04:35:52.219Z,1010.52
2016-12-25T04:36:52.186Z,1010.57
2016-12-25T04:37:52.394Z,1010.53
2016-12-25T04:38:52.219Z,1010.57
2016-12-25T04:39:52.180Z,1010.59
2016-12-25T04:40:52.359Z,1010.52
2016-12-25T04:41:52.638Z,1010.45
2016-12-25T04:42:52.280Z,1010.56
2016-12-25T04:43:52.537Z,1010.63
2016-12-25T04:44:52.451Z,1010.66
2016-12-25T04:45:52.598Z,1010.75
2016-12-25T04:46:52.430Z,1010.73
2016-12-25T04:47:52.610Z,1010.73
2016-12-25T04:48:52.591Z,1010.66
2016-12-25T04:49:52.776Z,1010.76
2016-12-25T04:50:52.418Z,1010.71
2016-12-25T04:51:52.663Z,1010.81
2016-12-25T04:52:52.578Z,1010.72
2016-12-25T04:53:52.426Z,1010.72
2016-12-25T04:54:52.467Z,1010.7
2016-12-25T04:55:52.510Z,1010.73
2016-12-25T04:56:52.727Z,1010.79
2016-12-25T04:57:52.491Z,1010.76
2016-12-25T04:58:52.564Z,1010.83
2016-12-25T04:59:52.680Z,1010.84
2016-12-25T05:00:52.522Z,1010.88
2016-12-25T05:01:52.562Z,1010.78
2016-12-25T05:02:52.792Z,1010.9
2016-12-25T05:03:53.088Z,1010.86
2016-12-25T05:04:53.232Z,1010.81
2016-12-25T05:05:52.697Z,1010.71
2016-12-25T05:06:52.674Z,1010.75
2016-12-25T05:07:52.751Z,1010.71
2016-12-25T05:08:52.788Z,1010.73
2016-12-25T05:09:53.018Z,1010.66
2016-12-25T05:10:52.951Z,1010.57
2016-12-25T05:11:53.100Z,1010.66
2016-12-25T05:12:52.719Z,1010.63
2016-12-25T05:13:52.873Z,1010.59
2016-12-25T05:14:52.791Z,1010.76
2016-12-25T05:15:53.202Z,1010.65
2016-12-25T05:16:52.956Z,1010.61
2016-12-25T05:17:52.827Z,1010.63
2016-12-25T05:18:53.013Z,1010.59
2016-12-25T05:19:52.838Z,1010.61
2016-12-25T05:20:53.315Z,1010.72
2016-12-25T05:21:53.172Z,1010.66
2016-12-25T05:22:53.093Z,1010.57
2016-12-25T05:23:53.130Z,1010.68
2016-12-25T05:24:53.214Z,1010.66
2016-12-25T05:25:53.257Z,1010.59
2016-12-25T05:26:53.164Z,1010.63
2016-12-25T05:27:53.226Z,1010.51
2016-12-25T05:28:53.273Z,1010.59
2016-12-25T05:29:53.609Z,1010.54
2016-12-25T05:30:53.168Z,1010.57
2016-12-25T05:31:53.231Z,1010.51
2016-12-25T05:32:53.377Z,1010.52
2016-12-25T05:33:53.240Z,1010.58
2016-12-25T05:34:53.198Z,1010.54
2016-12-25T05:35:53.602Z,1010.48
2016-12-25T05:36:53.189Z,1010.49
2016-12-25T05:37:53.481Z,1010.48
2016-12-25T05:38:53.173Z,1010.51
2016-12-25T05:39:53.434Z,1010.49
2016-12-25T05:40:53.475Z,1010.52
2016-12-25T05:41:53.333Z,1010.54
2016-12-25T05:42:53.637Z,1010.61
2016-12-25T05:43:53.697Z,1010.66
2016-12-25T05:44:53.406Z,1010.61
2016-12-25T05:45:53.619Z,1010.66
2016-12-25T05:46:53.535Z,1010.65
2016-12-25T05:47:53.397Z,1010.72
2016-12-25T05:48:53.512Z,1010.71
2016-12-25T05:49:53.481Z,1010.68
2016-12-25T05:50:53.381Z,1010.69
2016-12-25T05:51:53.759Z,1010.76
2016-12-25T05:52:53.753Z,1010.72
2016-12-25T05:53:53.798Z,1010.81
2016-12-25T05:54:53.611Z,1010.77
2016-12-25T05:55:53.730Z,1010.7
2016-12-25T05:56:53.643Z,1010.66
2016-12-25T05:57:53.704Z,1010.68
2016-12-25T05:58:53.652Z,1010.67
2016-12-25T05:59:53.478Z,1010.57
2016-12-25T06:00:53.700Z,1010.55
2016-12-25T06:01:53.437Z,1010.55
2016-12-25T06:02:57.515Z,1010.43
2016-12-25T06:04:57.745Z,1010.39
2016-12-25T06:05:53.800Z,1010.39
2016-12-25T06:06:53.861Z,1010.32
2016-12-25T06:07:54.039Z,1010.32
2016-12-25T06:08:53.840Z,1010.2
2016-12-25T06:09:53.918Z,1010.33
2016-12-25T06:10:54.183Z,1010.27
2016-12-25T06:11:54.062Z,1010.29
2016-12-25T06:12:55.510Z,1010.29
2016-12-25T06:13:54.624Z,1010.22
2016-12-25T06:14:54.727Z,1010.23
2016-12-25T06:15:55.119Z,1010.25
2016-12-25T06:16:54.502Z,1010.25
2016-12-25T06:17:53.927Z,1010.31
2016-12-25T06:18:54.446Z,1010.31
2016-12-25T06:19:53.823Z,1010.31
2016-12-25T06:20:54.000Z,1010.37
2016-12-25T06:21:54.108Z,1010.42
2016-12-25T06:22:54.579Z,1010.37
2016-12-25T06:23:54.116Z,1010.4
2016-12-25T06:24:54.469Z,1010.43
2016-12-25T06:25:54.120Z,1010.41
2016-12-25T06:26:54.477Z,1010.44
2016-12-25T06:27:55.539Z,1010.4
2016-12-25T06:28:54.395Z,1010.42
2016-12-25T06:29:55.173Z,1010.43
2016-12-25T06:30:54.169Z,1010.4
2016-12-25T06:31:54.480Z,1010.54
2016-12-25T06:32:54.474Z,1010.43
2016-12-25T06:33:54.919Z,1010.46
2016-12-25T06:34:54.042Z,1010.37
2016-12-25T06:35:54.658Z,1010.48
2016-12-25T06:36:54.367Z,1010.42
2016-12-25T06:37:55.109Z,1010.41
2016-12-25T06:38:54.406Z,1010.38
2016-12-25T06:39:54.659Z,1010.45
2016-12-25T06:40:54.540Z,1010.36
2016-12-25T06:41:54.798Z,1010.31
2016-12-25T06:42:54.259Z,1010.32
2016-12-25T06:43:54.615Z,1010.28
2016-12-25T06:44:54.737Z,1010.31
2016-12-25T06:45:55.164Z,1010.39
2016-12-25T06:46:55.909Z,1010.37
2016-12-25T06:47:54.372Z,1010.35
2016-12-25T06:48:54.781Z,1010.51
2016-12-25T06:49:54.714Z,1010.36
2016-12-25T06:50:55.830Z,1010.35
2016-12-25T06:51:55.205Z,1010.24
2016-12-25T06:52:54.508Z,1010.21
2016-12-25T06:53:55.319Z,1010.11
2016-12-25T06:54:54.667Z,1010.07
2016-12-25T06:55:55.275Z,1010.05
2016-12-25T06:56:54.606Z,1010.03
2016-12-25T06:57:54.573Z,1009.94
2016-12-25T06:58:54.972Z,1009.89
2016-12-25T06:59:54.786Z,1009.86
2016-12-25T07:00:54.595Z,1009.85
2016-12-25T07:01:54.677Z,1009.77
2016-12-25T07:02:55.071Z,1009.79
2016-12-25T07:03:54.966Z,1009.76
2016-12-25T07:04:54.702Z,1009.74
2016-12-25T07:05:54.899Z,1009.79
2016-12-25T07:06:54.703Z,1009.82
2016-12-25T07:07:55.283Z,1009.83
2016-12-25T07:08:55.157Z,1009.85
2016-12-25T07:09:54.638Z,1009.91
2016-12-25T07:10:54.991Z,1009.94
2016-12-25T07:11:54.933Z,1010
2016-12-25T07:12:54.656Z,1010.06
2016-12-25T07:13:55.141Z,1010.06
2016-12-25T07:14:54.918Z,1010.04
2016-12-25T07:15:55.155Z,1010.05
2016-12-25T07:16:55.254Z,1010.08
2016-12-25T07:17:55.117Z,1010.05
2016-12-25T07:18:54.884Z,1010.07
2016-12-25T07:19:55.580Z,1010.09
2016-12-25T07:20:55.261Z,1010.08
2016-12-25T07:21:55.240Z,1010.1
2016-12-25T07:22:55.224Z,1010.11
2016-12-25T07:23:55.342Z,1010.15
2016-12-25T07:24:56.040Z,1010.24
2016-12-25T07:25:55.114Z,1010.22
2016-12-25T07:26:56.514Z,1010.24
2016-12-25T07:27:55.930Z,1010.27
2016-12-25T07:28:55.109Z,1010.36
2016-12-25T07:29:55.909Z,1010.24
2016-12-25T07:30:56.333Z,1010.27
2016-12-25T07:31:55.498Z,1010.24
2016-12-25T07:32:55.223Z,1010.26
2016-12-25T07:33:55.396Z,1010.23
2016-12-25T07:34:55.162Z,1010.33
2016-12-25T07:35:55.880Z,1010.3
2016-12-25T07:36:55.922Z,1010.33
2016-12-25T07:37:55.580Z,1010.35
2016-12-25T07:38:55.813Z,1010.29
2016-12-25T07:40:55.865Z,1010.27
2016-12-25T07:41:55.778Z,1010.37
2016-12-25T07:42:55.877Z,1010.41
2016-12-25T07:43:55.886Z,1010.41
2016-12-25T07:44:55.413Z,1010.38
2016-12-25T07:47:55.928Z,1010.37
2016-12-25T07:48:55.528Z,1010.34
2016-12-25T07:49:55.425Z,1010.46
2016-12-25T07:50:55.828Z,1010.37
2016-12-25T07:51:55.473Z,1010.4
2016-12-25T07:52:55.899Z,1010.37
2016-12-25T07:53:55.704Z,1010.37
2016-12-25T07:54:55.653Z,1010.46
2016-12-25T07:55:55.763Z,1010.41
2016-12-25T07:56:55.691Z,1010.4
2016-12-25T07:57:55.610Z,1010.34
2016-12-25T07:58:55.578Z,1010.4
2016-12-25T07:59:55.563Z,1010.3
2016-12-25T08:00:55.449Z,1010.37
2016-12-25T08:01:55.516Z,1010.39
2016-12-25T08:02:55.723Z,1010.36
2016-12-25T08:03:55.556Z,1010.36
2016-12-25T08:04:55.582Z,1010.35
2016-12-25T08:05:55.592Z,1010.37
2016-12-25T08:06:56.066Z,1010.31
2016-12-25T08:07:55.592Z,1010.37
2016-12-25T08:08:56.037Z,1010.38
2016-12-25T08:09:55.965Z,1010.43
2016-12-25T08:15:58.306Z,1010.5
2016-12-25T08:16:55.786Z,1010.54
2016-12-25T08:17:56.261Z,1010.62
2016-12-25T08:18:55.973Z,1010.67
2016-12-25T08:19:55.838Z,1010.57
2016-12-25T08:20:55.952Z,1010.54
2016-12-25T08:21:56.032Z,1010.59
2016-12-25T08:22:56.194Z,1010.56
2016-12-25T08:23:55.916Z,1010.59
2016-12-25T08:24:55.872Z,1010.63
2016-12-25T08:25:55.914Z,1010.59
2016-12-25T08:26:55.981Z,1010.58
2016-12-25T08:27:56.240Z,1010.6
2016-12-25T08:28:56.130Z,1010.64
2016-12-25T08:29:56.008Z,1010.6
2016-12-25T08:30:56.101Z,1010.59
2016-12-25T08:31:55.974Z,1010.61
2016-12-25T08:32:56.229Z,1010.6
2016-12-25T08:33:56.232Z,1010.61
2016-12-25T08:34:56.249Z,1010.64
2016-12-25T08:35:56.213Z,1010.6
2016-12-25T08:36:56.279Z,1010.6
2016-12-25T08:37:56.366Z,1010.58
2016-12-25T08:38:56.200Z,1010.62
2016-12-25T08:39:56.371Z,1010.65
2016-12-25T08:40:56.155Z,1010.67
2016-12-25T08:41:56.206Z,1010.6
2016-12-25T08:42:56.524Z,1010.59
2016-12-25T08:43:56.337Z,1010.62
2016-12-25T08:44:56.190Z,1010.58
2016-12-25T08:45:56.303Z,1010.55
2016-12-25T08:46:56.121Z,1010.54
2016-12-25T08:47:56.270Z,1010.62
2016-12-25T08:48:56.187Z,1010.55
2016-12-25T08:49:56.504Z,1010.64
2016-12-25T08:50:56.233Z,1010.64
2016-12-25T08:51:56.672Z,1010.54
2016-12-25T08:52:56.338Z,1010.52
2016-12-25T08:53:56.403Z,1010.56
2016-12-25T08:54:56.360Z,1010.6
2016-12-25T08:55:56.469Z,1010.59
2016-12-25T08:56:56.480Z,1010.56
2016-12-25T08:57:56.321Z,1010.54
2016-12-25T08:58:56.629Z,1010.48
2016-12-25T08:59:56.530Z,1010.56
2016-12-25T09:00:56.569Z,1010.58
2016-12-25T09:01:56.485Z,1010.57
2016-12-25T09:02:56.521Z,1010.39
2016-12-25T09:03:56.488Z,1010.46
2016-12-25T09:04:56.828Z,1010.51
2016-12-25T09:05:56.965Z,1010.56
2016-12-25T09:06:56.670Z,1010.53
2016-12-25T09:07:56.939Z,1010.57
2016-12-25T09:08:57.250Z,1010.63
2016-12-25T09:09:56.918Z,1010.56
2016-12-25T09:10:56.691Z,1010.63
2016-12-25T09:12:00.858Z,1010.63
2016-12-25T09:12:57.000Z,1010.58
2016-12-25T09:13:57.144Z,1010.58
2016-12-25T09:14:56.946Z,1010.58
2016-12-25T09:15:57.077Z,1010.5
2016-12-25T09:16:56.997Z,1010.5
2016-12-25T09:17:56.841Z,1010.63
2016-12-25T09:18:57.303Z,1010.54
2016-12-25T09:19:56.813Z,1010.59
2016-12-25T09:20:56.737Z,1010.49
2016-12-25T09:21:56.774Z,1010.57
2016-12-25T09:22:56.930Z,1010.49
2016-12-25T09:23:57.132Z,1010.53
2016-12-25T09:24:56.933Z,1010.54
2016-12-25T09:25:57.098Z,1010.61
2016-12-25T09:26:56.944Z,1010.63
2016-12-25T09:27:57.045Z,1010.54
2016-12-25T09:28:56.920Z,1010.55
2016-12-25T09:29:57.154Z,1010.55
2016-12-25T09:30:57.036Z,1010.61
2016-12-25T09:31:57.887Z,1010.53
2016-12-25T09:32:57.455Z,1010.65
2016-12-25T09:33:56.942Z,1010.62
2016-12-25T09:34:57.052Z,1010.64
2016-12-25T09:35:57.029Z,1010.69
2016-12-25T09:36:57.222Z,1010.69
2016-12-25T09:37:57.283Z,1010.59
2016-12-25T09:38:57.018Z,1010.6
2016-12-25T09:39:57.165Z,1010.76
2016-12-25T09:40:57.098Z,1010.68
2016-12-25T09:41:57.350Z,1010.7
2016-12-25T09:42:57.353Z,1010.76
2016-12-25T09:43:57.241Z,1010.76
2016-12-25T09:44:57.401Z,1010.75
2016-12-25T09:45:57.360Z,1010.85
2016-12-25T09:46:57.587Z,1010.8
2016-12-25T09:47:57.329Z,1010.81
2016-12-25T09:48:57.378Z,1010.79
2016-12-25T09:49:57.386Z,1010.84
2016-12-25T09:50:57.279Z,1010.77
2016-12-25T09:51:57.482Z,1010.84
2016-12-25T09:52:57.434Z,1010.86
2016-12-25T09:53:57.419Z,1010.83
2016-12-25T09:54:57.533Z,1010.9
2016-12-25T09:55:57.549Z,1010.86
2016-12-25T09:56:57.537Z,1010.83
2016-12-25T09:57:57.807Z,1010.85
2016-12-25T09:58:57.398Z,1010.85
2016-12-25T09:59:57.519Z,1010.88
2016-12-25T10:00:57.583Z,1010.82
2016-12-25T10:01:57.513Z,1010.83
2016-12-25T10:02:57.683Z,1010.8
2016-12-25T10:03:57.484Z,1010.87
2016-12-25T10:04:57.694Z,1010.82
2016-12-25T10:05:57.534Z,1010.83
2016-12-25T10:06:57.593Z,1010.89
2016-12-25T10:07:57.649Z,1010.79
2016-12-25T10:08:57.563Z,1010.85
2016-12-25T10:09:57.857Z,1010.8
2016-12-25T10:10:57.616Z,1010.86
2016-12-25T10:11:57.722Z,1010.83
2016-12-25T10:12:57.629Z,1010.84
2016-12-25T10:13:57.844Z,1010.79
2016-12-25T10:14:57.787Z,1010.74
2016-12-25T10:15:58.166Z,1010.81
2016-12-25T10:16:57.755Z,1010.77
2016-12-25T10:17:57.801Z,1010.79
2016-12-25T10:18:58.127Z,1010.72
2016-12-25T10:19:57.948Z,1010.74
2016-12-25T10:20:58.112Z,1010.7
2016-12-25T10:21:58.313Z,1010.68
2016-12-25T10:22:58.110Z,1010.66
2016-12-25T10:23:58.044Z,1010.7
2016-12-25T10:24:58.079Z,1010.67
2016-12-25T10:25:58.043Z,1010.77
2016-12-25T10:26:57.991Z,1010.73
2016-12-25T10:27:58.077Z,1010.76
2016-12-25T10:28:58.388Z,1010.75
2016-12-25T10:29:58.252Z,1010.71
2016-12-25T10:30:58.235Z,1010.72
2016-12-25T10:31:58.251Z,1010.74
2016-12-25T10:32:58.134Z,1010.77
2016-12-25T10:33:58.189Z,1010.76
2016-12-25T10:34:58.182Z,1010.74
2016-12-25T10:35:58.139Z,1010.76
2016-12-25T10:36:58.387Z,1010.8
2016-12-25T10:37:58.313Z,1010.82
2016-12-25T10:38:58.174Z,1010.78
2016-12-25T10:39:58.141Z,1010.72
2016-12-25T10:40:58.103Z,1010.7
2016-12-25T10:41:58.139Z,1010.72
2016-12-25T10:42:58.108Z,1010.67
2016-12-25T10:43:58.269Z,1010.75
2016-12-25T10:44:58.149Z,1010.7
2016-12-25T10:45:58.218Z,1010.82
2016-12-25T10:46:58.224Z,1010.85
2016-12-25T10:47:58.279Z,1010.86
2016-12-25T10:48:59.052Z,1010.77
2016-12-25T10:49:58.263Z,1010.68
2016-12-25T10:50:58.803Z,1010.62
2016-12-25T10:51:58.287Z,1010.66
2016-12-25T10:52:58.473Z,1010.79
2016-12-25T10:53:58.292Z,1010.67
2016-12-25T10:54:58.792Z,1010.64
2016-12-25T10:55:58.639Z,1010.8
2016-12-25T10:56:58.530Z,1010.76
2016-12-25T10:57:58.772Z,1010.74
2016-12-25T10:58:58.941Z,1010.72
2016-12-25T10:59:58.564Z,1010.77
2016-12-25T11:00:58.706Z,1010.88
2016-12-25T11:01:58.670Z,1010.71
2016-12-25T11:02:58.802Z,1010.74
2016-12-25T11:03:59.045Z,1010.64
2016-12-25T11:04:59.369Z,1010.68
2016-12-25T11:05:59.035Z,1010.72
2016-12-25T11:06:58.591Z,1010.78
2016-12-25T11:07:58.817Z,1010.73
2016-12-25T11:08:58.844Z,1010.72
2016-12-25T11:09:58.911Z,1010.62
2016-12-25T11:10:58.775Z,1010.83
2016-12-25T11:11:58.798Z,1010.75
2016-12-25T11:12:58.777Z,1010.76
2016-12-25T11:13:58.826Z,1010.73
2016-12-25T11:14:58.896Z,1010.7
2016-12-25T11:15:58.872Z,1010.72
2016-12-25T11:16:58.734Z,1010.67
2016-12-25T11:17:58.907Z,1010.68
2016-12-25T11:18:58.981Z,1010.72
2016-12-25T11:19:58.810Z,1010.77
2016-12-25T11:20:59.156Z,1010.73
2016-12-25T11:21:59.286Z,1010.78
2016-12-25T11:22:58.860Z,1010.72
2016-12-25T11:23:58.898Z,1010.77
2016-12-25T11:24:59.009Z,1010.62
2016-12-25T11:25:59.053Z,1010.8
2016-12-25T11:26:59.310Z,1010.82
2016-12-25T11:27:58.879Z,1010.8
2016-12-25T11:28:59.140Z,1010.8
2016-12-25T11:29:59.227Z,1010.79
2016-12-25T11:30:59.185Z,1010.74
2016-12-25T11:31:59.005Z,1010.79
2016-12-25T11:32:59.415Z,1010.83
2016-12-25T11:33:59.362Z,1010.77
2016-12-25T11:34:59.703Z,1010.74
2016-12-25T11:35:59.248Z,1010.76
2016-12-25T11:36:59.130Z,1010.75
2016-12-25T11:37:59.265Z,1010.78
2016-12-25T11:38:59.190Z,1010.78
2016-12-25T11:39:59.241Z,1010.78
2016-12-25T11:40:59.279Z,1010.76
2016-12-25T11:41:59.558Z,1010.8
2016-12-25T11:42:59.513Z,1010.82
2016-12-25T11:43:59.261Z,1010.83
2016-12-25T11:44:59.347Z,1010.76
2016-12-25T11:45:59.482Z,1010.76
2016-12-25T11:46:59.558Z,1010.89
2016-12-25T11:47:59.248Z,1010.86
2016-12-25T11:48:59.596Z,1010.85
2016-12-25T11:49:59.315Z,1010.9
2016-12-25T11:50:59.303Z,1010.85
2016-12-25T11:51:59.269Z,1010.87
2016-12-25T11:52:59.502Z,1010.85
2016-12-25T11:53:59.395Z,1010.86
2016-12-25T11:54:59.341Z,1010.9
2016-12-25T11:55:59.605Z,1010.87
2016-12-25T11:56:59.654Z,1010.86
2016-12-25T11:57:59.632Z,1010.92
2016-12-25T11:58:59.529Z,1010.94
2016-12-25T11:59:59.520Z,1010.91
2016-12-25T12:00:59.719Z,1010.86
2016-12-25T12:01:59.481Z,1010.82
2016-12-25T12:02:59.892Z,1010.85
2016-12-25T12:03:59.533Z,1010.9
2016-12-25T12:04:59.555Z,1010.88
2016-12-25T12:05:59.754Z,1010.89
2016-12-25T12:06:59.667Z,1010.89
2016-12-25T12:07:59.564Z,1010.95
2016-12-25T12:08:59.755Z,1010.89
2016-12-25T12:09:59.854Z,1010.86
2016-12-25T12:10:59.704Z,1010.82
2016-12-25T12:11:59.807Z,1010.79
2016-12-25T12:12:59.802Z,1010.78
2016-12-25T12:14:00.040Z,1010.78
2016-12-25T12:15:00.099Z,1010.8
2016-12-25T12:15:59.887Z,1010.88
2016-12-25T12:17:00.084Z,1010.88
2016-12-25T12:18:00.179Z,1010.91